Time;durP1;ratioP1;P1;durP2;ratioP2;P2;SDS_P1;SDS_P2;PMS_P1;PMS_P2;Temp;Humidity;BMP_temperature;BMP_pressure;BME280_temperature;BME280_humidity;BME280_pressure;Samples;Min_cycle;Max_cycle;Signal;HPM_P1;HPM_P2
2023/12/27 00:00:29;;;;;;;9.10;4.13;;;7.30;99.90;;;;;;4973107;28;20023;-92
2023/12/27 00:02:57;;;;;;;7.53;3.97;;;7.30;99.90;;;;;;4969864;28;20030;-92
2023/12/27 00:05:23;;;;;;;9.85;4.55;;;7.30;99.90;;;;;;4969277;28;20058;-93
2023/12/27 00:07:49;;;;;;;8.27;3.70;;;7.30;99.90;;;;;;4962436;29;20028;-94
2023/12/27 00:10:14;;;;;;;7.50;3.83;;;7.30;99.90;;;;;;4962935;29;20039;-94
2023/12/27 00:12:40;;;;;;;8.93;3.78;;;7.30;99.90;;;;;;4970412;28;20095;-93
2023/12/27 00:15:06;;;;;;;7.53;3.38;;;7.30;99.90;;;;;;4968722;29;20027;-92
2023/12/27 00:17:32;;;;;;;12.55;4.32;;;7.30;99.90;;;;;;4967888;29;20027;-92
2023/12/27 00:19:58;;;;;;;10.25;3.08;;;7.40;99.90;;;;;;4952166;28;20029;-94
2023/12/27 00:22:23;;;;;;;7.60;3.55;;;7.40;99.90;;;;;;4968466;28;20038;-93
2023/12/27 00:24:49;;;;;;;10.48;4.53;;;7.40;99.90;;;;;;4953539;28;20155;-93
2023/12/27 00:27:15;;;;;;;6.22;3.72;;;7.40;99.90;;;;;;4959385;29;20478;-91
2023/12/27 00:29:40;;;;;;;8.10;3.22;;;7.40;99.90;;;;;;4966715;28;20027;-92
2023/12/27 00:32:09;;;;;;;7.93;3.55;;;7.40;99.90;;;;;;4968581;29;20047;-93
2023/12/27 00:34:38;;;;;;;8.85;3.67;;;7.40;99.90;;;;;;4962725;29;20028;-92
2023/12/27 00:37:04;;;;;;;9.05;4.28;;;7.40;99.90;;;;;;4963560;29;20034;-93
2023/12/27 00:39:30;;;;;;;6.63;4.18;;;7.40;99.90;;;;;;4967349;28;20031;-92
2023/12/27 00:41:56;;;;;;;11.35;4.40;;;7.40;99.90;;;;;;4967574;29;20042;-93
2023/12/27 00:44:22;;;;;;;8.07;3.67;;;7.30;99.90;;;;;;4967545;28;20049;-91
2023/12/27 00:46:48;;;;;;;10.63;4.38;;;7.30;99.90;;;;;;4961134;28;20044;-93
2023/12/27 00:49:14;;;;;;;8.95;3.97;;;7.30;99.90;;;;;;4954638;29;20064;-91
2023/12/27 00:51:40;;;;;;;7.90;3.97;;;7.30;99.90;;;;;;4957018;29;20035;-93
2023/12/27 00:54:06;;;;;;;8.73;3.65;;;7.30;99.90;;;;;;4955279;28;20047;-93
2023/12/27 00:56:32;;;;;;;9.80;4.32;;;7.20;99.90;;;;;;4957266;28;20028;-92
2023/12/27 00:58:58;;;;;;;7.15;4.90;;;7.20;99.90;;;;;;4949413;28;20042;-93
2023/12/27 01:01:23;;;;;;;9.15;4.03;;;7.10;99.90;;;;;;4965726;29;20047;-93
2023/12/27 01:03:49;;;;;;;7.40;3.75;;;7.10;99.90;;;;;;4951208;29;20027;-91
2023/12/27 01:06:15;;;;;;;8.90;3.55;;;7.10;99.90;;;;;;4950207;29;20126;-92
2023/12/27 01:08:40;;;;;;;9.20;3.10;;;7.00;99.90;;;;;;4960086;28;20036;-92
2023/12/27 01:11:06;;;;;;;9.10;3.97;;;7.00;99.90;;;;;;4956253;29;20038;-91
2023/12/27 01:13:32;;;;;;;8.70;4.10;;;7.10;99.90;;;;;;4962920;28;20052;-93
2023/12/27 01:16:01;;;;;;;7.43;3.08;;;7.00;99.90;;;;;;4955863;29;20478;-94
2023/12/27 01:18:27;;;;;;;6.57;3.50;;;7.10;99.90;;;;;;4954122;28;20032;-91
2023/12/27 01:20:53;;;;;;;9.05;4.57;;;7.10;99.90;;;;;;4946921;29;20084;-91
2023/12/27 01:23:18;;;;;;;9.10;4.80;;;7.10;99.90;;;;;;4967322;29;20055;-92
2023/12/27 01:25:44;;;;;;;8.10;4.20;;;7.10;99.90;;;;;;4967761;28;20122;-91
2023/12/27 01:28:10;;;;;;;7.85;3.40;;;7.10;99.90;;;;;;4965322;28;20035;-92
2023/12/27 01:30:35;;;;;;;9.43;3.90;;;7.10;99.90;;;;;;4967025;29;20051;-92
2023/12/27 01:33:01;;;;;;;7.47;3.67;;;7.10;99.90;;;;;;4966258;28;20027;-93
2023/12/27 01:35:27;;;;;;;6.80;3.40;;;7.10;99.90;;;;;;4959553;28;20114;-92
2023/12/27 01:37:53;;;;;;;9.23;3.60;;;7.20;99.90;;;;;;4959298;28;20034;-92
2023/12/27 01:40:18;;;;;;;8.57;4.40;;;7.20;99.90;;;;;;4966021;29;20042;-92
2023/12/27 01:42:44;;;;;;;6.32;3.70;;;7.20;99.90;;;;;;4951147;29;20027;-92
2023/12/27 01:45:10;;;;;;;6.90;3.60;;;7.20;99.90;;;;;;4953791;29;20092;-94
2023/12/27 01:47:37;;;;;;;5.85;2.97;;;7.20;99.90;;;;;;4946723;29;20051;-92
2023/12/27 01:50:10;;;;;;;6.03;3.88;;;7.20;99.90;;;;;;4954507;29;20066;-92
2023/12/27 01:52:38;;;;;;;6.22;3.08;;;7.30;99.90;;;;;;4964011;28;20062;-92
2023/12/27 01:55:04;;;;;;;8.75;3.70;;;7.20;99.90;;;;;;4966190;28;20023;-92
2023/12/27 01:57:30;;;;;;;5.88;2.95;;;7.20;99.90;;;;;;4962168;28;20043;-94
2023/12/27 01:59:56;;;;;;;6.70;3.45;;;7.20;99.90;;;;;;4957655;28;20039;-93
2023/12/27 02:02:24;;;;;;;7.72;3.83;;;7.30;99.90;;;;;;4957709;29;20029;-93
2023/12/27 02:04:50;;;;;;;6.93;3.15;;;7.30;99.90;;;;;;4976873;28;20027;-92
2023/12/27 02:07:16;;;;;;;8.40;3.38;;;7.30;99.90;;;;;;4956806;29;20284;-91
2023/12/27 02:09:42;;;;;;;7.85;4.13;;;7.30;99.90;;;;;;4961549;29;20458;-91
2023/12/27 02:12:08;;;;;;;11.63;3.70;;;7.30;99.90;;;;;;4965890;28;20059;-93
2023/12/27 02:14:33;;;;;;;10.32;3.92;;;7.30;99.90;;;;;;4975983;28;20027;-92
2023/12/27 02:17:00;;;;;;;7.25;4.28;;;7.30;99.90;;;;;;4949540;29;20079;-92
2023/12/27 02:19:27;;;;;;;8.73;3.33;;;7.30;99.90;;;;;;4973350;28;20167;-93
2023/12/27 02:21:53;;;;;;;6.70;2.70;;;7.30;99.90;;;;;;4966457;28;20043;-93
2023/12/27 02:24:21;;;;;;;6.13;3.00;;;7.30;99.90;;;;;;4964945;28;20030;-93
2023/12/27 02:26:47;;;;;;;6.43;2.95;;;7.30;99.90;;;;;;4963221;29;20031;-92
2023/12/27 02:29:16;;;;;;;6.75;3.67;;;7.30;99.90;;;;;;4957988;28;20033;-92
2023/12/27 02:31:42;;;;;;;7.65;3.35;;;7.30;99.90;;;;;;4965642;28;20035;-92
2023/12/27 02:34:07;;;;;;;7.68;3.08;;;7.40;99.90;;;;;;4949275;28;20036;-92
2023/12/27 02:36:33;;;;;;;12.05;3.63;;;7.40;99.90;;;;;;4946644;29;20034;-92
2023/12/27 02:38:59;;;;;;;5.70;2.90;;;7.40;99.90;;;;;;4979162;28;20122;-91
2023/12/27 02:41:24;;;;;;;8.40;3.08;;;7.40;99.90;;;;;;4956846;29;20566;-91
2023/12/27 02:43:50;;;;;;;6.75;3.45;;;7.40;99.90;;;;;;4957447;29;20087;-93
2023/12/27 02:46:15;;;;;;;8.95;4.78;;;7.40;99.90;;;;;;4948270;29;20458;-92
2023/12/27 02:48:41;;;;;;;7.20;3.45;;;7.40;99.90;;;;;;4958307;28;20055;-94
2023/12/27 02:51:07;;;;;;;6.40;4.18;;;7.40;99.90;;;;;;4954834;29;20038;-92
2023/12/27 02:53:32;;;;;;;6.32;3.03;;;7.40;99.90;;;;;;4953258;28;20024;-94
2023/12/27 02:55:58;;;;;;;6.88;4.90;;;7.40;99.90;;;;;;4961167;29;20317;-93
2023/12/27 02:58:24;;;;;;;7.68;3.33;;;7.40;99.90;;;;;;4949645;29;20039;-93
2023/12/27 03:00:50;;;;;;;6.82;3.75;;;7.40;99.90;;;;;;4958810;28;20133;-92
2023/12/27 03:03:16;;;;;;;7.85;3.15;;;7.40;99.90;;;;;;4966428;29;20038;-90
2023/12/27 03:05:41;;;;;;;5.65;3.58;;;7.40;99.90;;;;;;4965642;29;20027;-92
2023/12/27 03:08:07;;;;;;;7.13;2.80;;;7.40;99.90;;;;;;4965888;28;20034;-93
2023/12/27 03:10:33;;;;;;;6.38;3.83;;;7.40;99.90;;;;;;4957506;29;20027;-92
2023/12/27 03:12:58;;;;;;;5.03;3.45;;;7.40;99.90;;;;;;4948467;29;20019;-93
2023/12/27 03:15:25;;;;;;;6.72;3.78;;;7.40;99.90;;;;;;4957499;29;20043;-93
2023/12/27 03:17:51;;;;;;;5.32;3.28;;;7.40;99.90;;;;;;4971271;28;20046;-93
2023/12/27 03:20:17;;;;;;;6.60;3.45;;;7.40;99.90;;;;;;4964918;28;20033;-93
2023/12/27 03:22:42;;;;;;;6.95;3.47;;;7.40;99.90;;;;;;4950350;28;20027;-92
2023/12/27 03:25:08;;;;;;;8.73;4.00;;;7.40;99.90;;;;;;4948033;28;20103;-93
2023/12/27 03:27:35;;;;;;;6.30;3.67;;;7.40;99.90;;;;;;4970799;28;20501;-93
2023/12/27 03:30:00;;;;;;;8.60;3.20;;;7.50;99.90;;;;;;4972615;28;20051;-92
2023/12/27 03:32:29;;;;;;;9.45;4.18;;;7.40;99.90;;;;;;4967865;29;20030;-92
2023/12/27 03:34:54;;;;;;;9.02;3.78;;;7.40;99.90;;;;;;4956142;29;20079;-92
2023/12/27 03:37:20;;;;;;;8.90;3.63;;;7.40;99.90;;;;;;4962768;29;20067;-93
2023/12/27 03:39:50;;;;;;;6.43;3.47;;;7.40;99.90;;;;;;4949293;29;20514;-94
2023/12/27 03:42:19;;;;;;;6.60;3.63;;;7.50;99.90;;;;;;4956714;29;20032;-94
2023/12/27 03:44:45;;;;;;;9.85;3.30;;;7.50;99.90;;;;;;4957285;29;20035;-93
2023/12/27 03:47:11;;;;;;;7.90;4.43;;;7.50;99.90;;;;;;4952823;29;20020;-93
2023/12/27 03:49:36;;;;;;;4.90;3.03;;;7.50;99.90;;;;;;4951429;29;20039;-93
2023/12/27 03:52:02;;;;;;;6.47;3.25;;;7.50;99.90;;;;;;4958331;28;20109;-94
2023/12/27 03:54:28;;;;;;;6.05;2.63;;;7.50;99.90;;;;;;4964586;29;20107;-92
2023/12/27 03:56:53;;;;;;;7.68;3.38;;;7.50;99.90;;;;;;4970351;29;20043;-92
2023/12/27 03:59:19;;;;;;;6.40;3.90;;;7.50;99.90;;;;;;4967434;28;20028;-93
2023/12/27 04:01:45;;;;;;;8.77;2.80;;;7.40;99.90;;;;;;4966567;29;20027;-93
2023/12/27 04:04:10;;;;;;;5.68;2.88;;;7.50;99.90;;;;;;4963170;28;20028;-92
2023/12/27 04:06:36;;;;;;;6.38;3.28;;;7.50;99.90;;;;;;4971725;28;20016;-93
2023/12/27 04:09:01;;;;;;;7.60;4.38;;;7.40;99.90;;;;;;4962882;28;20110;-92
2023/12/27 04:11:27;;;;;;;6.43;3.15;;;7.40;99.90;;;;;;4958495;28;20027;-92
2023/12/27 04:13:53;;;;;;;6.18;3.40;;;7.50;99.90;;;;;;4952359;29;20292;-94
2023/12/27 04:16:18;;;;;;;5.97;4.10;;;7.40;99.90;;;;;;4962637;29;20035;-93
2023/12/27 04:18:44;;;;;;;5.75;3.08;;;7.40;99.90;;;;;;4970489;28;20073;-91
2023/12/27 04:21:10;;;;;;;4.63;3.25;;;7.40;99.90;;;;;;4968455;29;20027;-93
2023/12/27 04:23:35;;;;;;;6.10;3.15;;;7.30;99.90;;;;;;4966192;28;20024;-93
2023/12/27 04:26:01;;;;;;;5.78;3.53;;;7.30;99.90;;;;;;4955014;28;20023;-91
2023/12/27 04:28:26;;;;;;;4.65;3.15;;;7.20;99.90;;;;;;4980505;28;20524;-92
2023/12/27 04:30:52;;;;;;;6.40;2.97;;;7.20;99.90;;;;;;4964886;28;20032;-91
2023/12/27 04:33:17;;;;;;;7.18;3.80;;;7.10;99.90;;;;;;4968123;28;20030;-93
2023/12/27 04:35:44;;;;;;;6.70;3.03;;;7.10;99.90;;;;;;4963301;29;20035;-92
2023/12/27 04:38:13;;;;;;;5.50;3.58;;;7.00;99.90;;;;;;4968898;28;20024;-93
2023/12/27 04:40:44;;;;;;;7.03;3.35;;;7.00;99.90;;;;;;4971424;28;20440;-92
2023/12/27 04:43:10;;;;;;;9.95;3.83;;;7.00;99.90;;;;;;4955129;29;20095;-92
2023/12/27 04:45:35;;;;;;;7.15;3.50;;;7.10;99.90;;;;;;4947500;29;20051;-92
2023/12/27 04:48:01;;;;;;;5.88;3.50;;;7.10;99.90;;;;;;4956071;29;20024;-93
2023/12/27 04:50:27;;;;;;;6.85;3.55;;;7.00;99.90;;;;;;4963081;29;20038;-92
2023/12/27 04:52:52;;;;;;;9.93;4.35;;;7.00;99.90;;;;;;4959895;28;20051;-94
2023/12/27 04:55:18;;;;;;;7.72;3.45;;;7.00;99.90;;;;;;4968142;28;20026;-94
2023/12/27 04:57:44;;;;;;;7.72;4.18;;;6.90;99.90;;;;;;4961571;28;20037;-92
2023/12/27 05:00:10;;;;;;;7.38;3.42;;;6.90;99.90;;;;;;4963681;29;20038;-92
2023/12/27 05:02:36;;;;;;;7.93;3.25;;;6.80;99.90;;;;;;4947918;29;20039;-92
2023/12/27 05:05:02;;;;;;;11.02;5.03;;;6.70;99.90;;;;;;4957021;29;20034;-93
2023/12/27 05:07:27;;;;;;;6.28;3.40;;;6.70;99.90;;;;;;4959831;28;20024;-93
2023/12/27 05:09:53;;;;;;;8.30;3.53;;;6.60;99.90;;;;;;4959392;29;20042;-91
2023/12/27 05:12:18;;;;;;;5.97;3.22;;;6.60;99.90;;;;;;4959614;28;20059;-93
2023/12/27 05:14:44;;;;;;;7.80;3.35;;;6.60;99.90;;;;;;4967791;28;20082;-90
2023/12/27 05:17:10;;;;;;;8.63;3.95;;;6.70;99.90;;;;;;4964500;29;20031;-92
2023/12/27 05:19:39;;;;;;;10.38;2.85;;;6.60;99.90;;;;;;4953047;29;20027;-93
2023/12/27 05:22:08;;;;;;;8.02;4.18;;;6.50;99.90;;;;;;4958093;28;20030;-92
2023/12/27 05:24:33;;;;;;;7.70;5.10;;;6.60;99.90;;;;;;4966260;28;20030;-94
2023/12/27 05:26:59;;;;;;;8.13;4.70;;;6.60;99.90;;;;;;4964698;28;20019;-92
2023/12/27 05:29:24;;;;;;;15.63;4.63;;;6.50;99.90;;;;;;4961846;28;20086;-92
2023/12/27 05:31:50;;;;;;;6.60;4.20;;;6.50;99.90;;;;;;4954258;29;20095;-94
2023/12/27 05:34:16;;;;;;;7.18;4.03;;;6.60;99.90;;;;;;4956854;29;20039;-94
2023/12/27 05:36:41;;;;;;;8.52;4.13;;;6.60;99.90;;;;;;4962444;29;20027;-95
2023/12/27 05:39:07;;;;;;;10.38;5.05;;;6.60;99.90;;;;;;4958314;29;20626;-92
2023/12/27 05:41:33;;;;;;;7.72;3.47;;;6.60;99.90;;;;;;4960833;29;20055;-93
2023/12/27 05:43:58;;;;;;;7.85;4.68;;;6.50;99.90;;;;;;4955092;29;20023;-93
2023/12/27 05:46:24;;;;;;;6.90;3.80;;;6.50;99.90;;;;;;4951484;28;20058;-92
2023/12/27 05:48:50;;;;;;;10.10;4.53;;;6.40;99.90;;;;;;4966604;28;20035;-93
2023/12/27 05:51:15;;;;;;;10.32;4.60;;;6.40;99.90;;;;;;4967424;29;20087;-93
2023/12/27 05:53:41;;;;;;;8.13;5.22;;;6.50;99.90;;;;;;4956587;29;20419;-94
2023/12/27 05:56:08;;;;;;;6.25;3.13;;;6.30;99.90;;;;;;4971554;28;20095;-92
2023/12/27 05:58:34;;;;;;;8.48;3.53;;;6.40;99.90;;;;;;4967691;28;20031;-92
2023/12/27 06:01:00;;;;;;;9.77;3.08;;;6.30;99.90;;;;;;4965638;29;20031;-92
2023/12/27 06:03:25;;;;;;;8.55;3.30;;;6.30;99.90;;;;;;4958788;29;20086;-93
2023/12/27 06:05:51;;;;;;;7.35;2.88;;;6.30;99.90;;;;;;4965515;29;20019;-92
2023/12/27 06:08:20;;;;;;;8.57;3.28;;;6.20;99.90;;;;;;4962501;28;20031;-91
2023/12/27 06:10:46;;;;;;;7.53;3.47;;;6.20;99.90;;;;;;4947096;29;20028;-92
2023/12/27 06:13:12;;;;;;;6.03;3.25;;;6.30;99.90;;;;;;4963551;29;20034;-91
2023/12/27 06:15:38;;;;;;;7.43;4.70;;;6.20;99.90;;;;;;4964924;28;20031;-93
2023/12/27 06:18:04;;;;;;;6.50;3.42;;;6.20;99.90;;;;;;4956091;28;20083;-92
2023/12/27 06:20:29;;;;;;;6.47;3.65;;;6.20;99.90;;;;;;4945651;29;20019;-91
2023/12/27 06:22:55;;;;;;;11.88;6.95;;;6.20;99.90;;;;;;4953499;29;20386;-93
2023/12/27 06:25:21;;;;;;;5.80;4.22;;;6.10;99.90;;;;;;4945990;29;20031;-94
2023/12/27 06:27:48;;;;;;;8.70;4.35;;;6.20;99.90;;;;;;4952413;29;20023;-93
2023/12/27 06:30:14;;;;;;;8.95;4.07;;;6.20;99.90;;;;;;4960715;28;20034;-93
2023/12/27 06:32:39;;;;;;;10.40;4.28;;;6.10;99.90;;;;;;4952942;29;20040;-92
2023/12/27 06:35:05;;;;;;;6.97;3.55;;;6.10;99.90;;;;;;4953612;29;20513;-91
2023/12/27 06:37:31;;;;;;;7.05;3.38;;;6.10;99.90;;;;;;4956397;29;20232;-93
2023/12/27 06:39:57;;;;;;;6.38;3.65;;;6.20;99.90;;;;;;4969577;28;20035;-92
2023/12/27 06:42:23;;;;;;;8.48;4.03;;;6.10;99.90;;;;;;4964883;29;20035;-93
2023/12/27 06:44:49;;;;;;;6.03;4.07;;;6.10;99.90;;;;;;4974737;28;20040;-93
2023/12/27 06:47:15;;;;;;;7.78;4.28;;;6.10;99.90;;;;;;4962151;29;20082;-93
2023/12/27 06:49:40;;;;;;;8.70;4.57;;;6.10;99.90;;;;;;4945080;29;20034;-92
2023/12/27 06:52:06;;;;;;;6.22;3.67;;;6.10;99.90;;;;;;4946707;29;20028;-93
2023/12/27 06:54:31;;;;;;;6.03;5.28;;;6.10;99.90;;;;;;4953122;29;20598;-93
2023/12/27 06:56:59;;;;;;;7.32;4.65;;;6.10;99.90;;;;;;4964379;28;20023;-92
2023/12/27 06:59:26;;;;;;;7.57;4.43;;;6.00;99.90;;;;;;4960674;29;20028;-93
2023/12/27 07:01:52;;;;;;;8.00;4.53;;;6.00;99.90;;;;;;4962208;28;20026;-92
2023/12/27 07:04:18;;;;;;;8.02;3.80;;;6.00;99.90;;;;;;4963610;29;20027;-92
2023/12/27 07:06:44;;;;;;;8.75;4.93;;;6.00;99.90;;;;;;4955994;28;20027;-92
2023/12/27 07:09:10;;;;;;;8.02;4.28;;;6.10;99.90;;;;;;4962960;29;20034;-92
2023/12/27 07:11:35;;;;;;;6.80;4.20;;;6.10;99.90;;;;;;4950851;29;20031;-93
2023/12/27 07:14:01;;;;;;;8.38;4.10;;;6.10;99.90;;;;;;4956675;29;20027;-92
2023/12/27 07:16:27;;;;;;;9.38;4.10;;;6.10;99.90;;;;;;4958288;29;20030;-92
2023/12/27 07:18:52;;;;;;;8.52;4.22;;;6.00;99.90;;;;;;4963013;28;20040;-93
2023/12/27 07:21:18;;;;;;;6.93;4.88;;;6.00;99.90;;;;;;4954776;29;20051;-93
2023/12/27 07:23:44;;;;;;;6.63;3.95;;;6.00;99.90;;;;;;4954426;29;20024;-94
2023/12/27 07:26:13;;;;;;;7.30;4.35;;;6.00;99.90;;;;;;4947830;29;20034;-94
2023/12/27 07:28:39;;;;;;;8.90;5.00;;;6.00;99.90;;;;;;4956965;29;20039;-92
2023/12/27 07:31:06;;;;;;;7.97;5.28;;;5.90;99.90;;;;;;4944297;29;20024;-92
2023/12/27 07:33:31;;;;;;;7.70;5.40;;;5.80;99.90;;;;;;4960990;28;20030;-94
2023/12/27 07:35:57;;;;;;;8.18;5.22;;;5.90;99.90;;;;;;4966033;29;20031;-91
2023/12/27 07:38:24;;;;;;;7.82;3.90;;;5.80;99.90;;;;;;4959218;29;20039;-94
2023/12/27 07:40:50;;;;;;;7.72;3.95;;;5.90;99.90;;;;;;4950498;29;20024;-93
2023/12/27 07:43:15;;;;;;;5.18;3.42;;;5.80;99.90;;;;;;4964489;29;20082;-93
2023/12/27 07:45:44;;;;;;;5.85;4.35;;;5.80;99.90;;;;;;4951456;29;20027;-91
2023/12/27 07:48:09;;;;;;;6.97;4.35;;;5.80;99.90;;;;;;4957760;29;20023;-93
2023/12/27 07:50:36;;;;;;;7.15;4.50;;;5.90;99.90;;;;;;4963776;29;20031;-93
2023/12/27 07:53:02;;;;;;;6.60;4.47;;;5.80;99.90;;;;;;4947941;29;20028;-93
2023/12/27 07:55:28;;;;;;;7.60;3.80;;;5.80;99.90;;;;;;4946562;29;20024;-91
2023/12/27 07:57:54;;;;;;;6.30;4.82;;;5.80;99.90;;;;;;4952111;29;20195;-92
2023/12/27 08:00:19;;;;;;;6.22;4.63;;;5.80;99.90;;;;;;4962038;29;20063;-93
2023/12/27 08:02:45;;;;;;;15.60;8.18;;;5.80;99.90;;;;;;4956199;29;20024;-92
2023/12/27 08:05:11;;;;;;;10.75;6.13;;;5.80;99.90;;;;;;4962336;29;20030;-92
2023/12/27 08:07:38;;;;;;;11.60;6.00;;;5.80;99.90;;;;;;4956976;29;20028;-92
2023/12/27 08:10:04;;;;;;;6.45;4.50;;;5.90;99.90;;;;;;4951882;29;20034;-92
2023/12/27 08:12:32;;;;;;;10.38;5.32;;;5.80;99.90;;;;;;4954524;28;20023;-93
2023/12/27 08:14:57;;;;;;;;;;;5.90;99.90;;;;;;4965088;29;20023;-93
2023/12/27 08:17:23;;;;;;;7.22;4.22;;;5.90;99.90;;;;;;4971333;28;20128;-91
2023/12/27 08:19:49;;;;;;;6.95;4.05;;;5.90;99.90;;;;;;4948664;29;20024;-94
2023/12/27 08:22:14;;;;;;;8.23;4.65;;;5.90;99.90;;;;;;4961178;29;20067;-92
2023/12/27 08:24:40;;;;;;;8.60;4.40;;;5.90;99.90;;;;;;4967150;29;20031;-92
2023/12/27 08:27:06;;;;;;;7.60;5.43;;;5.90;99.90;;;;;;4961227;29;20063;-92
2023/12/27 08:29:32;;;;;;;9.88;7.93;;;5.90;99.90;;;;;;4966014;29;20023;-93
2023/12/27 08:31:57;;;;;;;11.70;7.32;;;6.00;99.90;;;;;;4967194;29;20027;-94
2023/12/27 08:34:23;;;;;;;12.88;7.50;;;6.00;99.90;;;;;;4959270;29;20102;-92
2023/12/27 08:36:49;;;;;;;10.77;5.85;;;6.00;99.90;;;;;;4967851;28;20087;-93
2023/12/27 08:39:15;;;;;;;6.95;5.50;;;6.00;99.90;;;;;;4956576;29;20521;-91
2023/12/27 08:41:41;;;;;;;8.57;5.97;;;6.10;99.90;;;;;;4954064;29;20024;-92
2023/12/27 08:44:07;;;;;;;9.57;5.88;;;6.10;99.90;;;;;;4957535;28;20046;-92
2023/12/27 08:46:33;;;;;;;7.15;5.22;;;6.20;99.90;;;;;;4962693;28;20020;-93
2023/12/27 08:48:59;;;;;;;7.65;5.30;;;6.20;99.90;;;;;;4949356;29;20024;-92
2023/12/27 08:51:25;;;;;;;7.45;4.93;;;6.30;99.90;;;;;;4968222;29;20050;-93
2023/12/27 08:53:50;;;;;;;8.18;5.50;;;6.30;99.90;;;;;;4968244;29;20599;-91
2023/12/27 08:56:17;;;;;;;9.93;6.22;;;6.30;99.90;;;;;;4965831;29;20054;-92
2023/12/27 08:58:42;;;;;;;6.07;4.63;;;6.30;99.90;;;;;;4968997;29;20026;-90
2023/12/27 09:01:08;;;;;;;7.75;4.78;;;6.30;99.90;;;;;;4974936;29;20042;-92
2023/12/27 09:03:34;;;;;;;7.68;4.32;;;6.30;99.90;;;;;;4958887;29;20028;-93
2023/12/27 09:05:59;;;;;;;5.97;5.07;;;6.40;99.90;;;;;;4955204;29;20028;-92
2023/12/27 09:08:25;;;;;;;7.38;4.47;;;6.40;99.90;;;;;;4949080;29;20036;-92
2023/12/27 09:10:51;;;;;;;9.75;4.53;;;6.50;99.90;;;;;;4959156;29;20026;-91
2023/12/27 09:13:16;;;;;;;10.90;6.82;;;6.50;99.90;;;;;;4963083;29;20031;-92
2023/12/27 09:15:42;;;;;;;9.80;7.65;;;6.60;99.90;;;;;;4966991;29;20545;-93
2023/12/27 09:18:10;;;;;;;13.75;7.75;;;6.70;99.90;;;;;;4966232;28;20051;-93
2023/12/27 09:20:36;;;;;;;12.60;6.68;;;6.70;99.90;;;;;;4966504;28;20029;-93
2023/12/27 09:23:02;;;;;;;11.63;5.68;;;6.80;99.90;;;;;;4957780;29;20076;-94
2023/12/27 09:25:29;;;;;;;10.25;5.30;;;6.90;99.90;;;;;;4952151;28;20074;-94
2023/12/27 09:27:55;;;;;;;8.48;4.47;;;7.00;99.90;;;;;;4945412;29;20482;-90
2023/12/27 09:30:20;;;;;;;10.20;5.07;;;7.00;99.90;;;;;;4956819;29;20032;-92
2023/12/27 09:32:46;;;;;;;12.27;4.65;;;7.10;99.90;;;;;;4975056;28;20103;-92
2023/12/27 09:35:12;;;;;;;6.97;5.70;;;7.10;99.90;;;;;;4957421;29;20039;-93
2023/12/27 09:37:37;;;;;;;7.28;3.97;;;7.20;99.90;;;;;;4966517;28;20027;-92
2023/12/27 09:40:04;;;;;;;10.63;5.57;;;7.30;99.90;;;;;;4956500;29;20035;-93
2023/12/27 09:42:35;;;;;;;7.85;4.70;;;7.40;99.90;;;;;;4960345;29;20057;-92
2023/12/27 09:45:04;;;;;;;8.57;4.60;;;7.40;99.90;;;;;;4950230;28;20083;-92
2023/12/27 09:47:32;;;;;;;5.65;3.85;;;7.50;99.90;;;;;;4965127;28;20038;-93
2023/12/27 09:49:58;;;;;;;7.70;4.15;;;7.60;99.90;;;;;;4965368;28;20024;-93
2023/12/27 09:52:24;;;;;;;8.30;5.03;;;7.60;99.90;;;;;;4959214;29;20160;-94
2023/12/27 09:54:50;;;;;;;10.63;5.05;;;7.60;99.90;;;;;;4966394;28;20510;-92
2023/12/27 09:57:16;;;;;;;10.65;6.15;;;7.60;99.90;;;;;;4962884;28;20051;-91
2023/12/27 09:59:46;;;;;;;10.82;4.78;;;7.60;99.90;;;;;;4960468;29;20047;-93
2023/12/27 10:02:17;;;;;;;7.95;4.85;;;7.60;99.90;;;;;;4965194;28;20478;-91
2023/12/27 10:04:52;;;;;;;10.27;5.25;;;7.60;99.90;;;;;;4968599;28;20118;-92
2023/12/27 10:07:21;;;;;;;11.95;7.10;;;7.80;99.90;;;;;;4969886;28;20027;-92
2023/12/27 10:09:47;;;;;;;8.98;6.47;;;8.00;99.90;;;;;;4972703;28;20031;-92
2023/12/27 10:12:14;;;;;;;8.30;4.40;;;8.30;99.90;;;;;;4971684;28;20035;-91
2023/12/27 10:14:40;;;;;;;10.57;4.75;;;8.50;99.90;;;;;;4955490;28;20030;-91
2023/12/27 10:17:06;;;;;;;6.65;3.53;;;8.70;99.90;;;;;;4950532;29;20063;-93
2023/12/27 10:19:45;;;;;;;5.93;3.92;;;8.80;99.00;;;;;;4954775;29;20067;-94
2023/12/27 10:22:13;;;;;;;7.35;3.17;;;8.80;99.50;;;;;;4966542;28;20055;-91
2023/12/27 10:24:39;;;;;;;5.80;3.25;;;8.90;99.90;;;;;;4966884;28;20556;-92
2023/12/27 10:27:06;;;;;;;7.63;3.28;;;9.00;99.90;;;;;;4949247;28;20023;-91
2023/12/27 10:29:32;;;;;;;7.70;3.60;;;8.90;98.00;;;;;;4965970;28;20033;-93
2023/12/27 10:31:59;;;;;;;6.07;3.45;;;8.80;97.00;;;;;;4956227;28;20065;-92
2023/12/27 10:34:25;;;;;;;6.43;3.55;;;8.80;98.10;;;;;;4959462;28;20032;-92
2023/12/27 10:36:51;;;;;;;4.63;3.00;;;8.70;98.80;;;;;;4951378;28;20505;-92
2023/12/27 10:39:20;;;;;;;9.57;4.70;;;8.70;99.30;;;;;;4955468;29;20032;-91
2023/12/27 10:41:46;;;;;;;6.47;3.00;;;8.80;99.00;;;;;;4955327;28;20098;-92
2023/12/27 10:44:16;;;;;;;5.60;4.68;;;9.10;97.20;;;;;;4953523;28;20445;-93
2023/12/27 10:46:43;;;;;;;6.32;3.53;;;9.40;94.40;;;;;;4959364;28;20082;-93
2023/12/27 10:49:10;;;;;;;8.20;4.20;;;9.60;93.90;;;;;;4961615;28;20027;-94
2023/12/27 10:51:39;;;;;;;6.93;5.05;;;9.60;93.90;;;;;;4942380;29;20106;-91
2023/12/27 10:54:05;;;;;;;6.82;3.80;;;9.60;94.50;;;;;;4959195;29;20063;-93
2023/12/27 10:56:37;;;;;;;8.50;3.05;;;9.50;93.70;;;;;;4961901;28;20051;-94
2023/12/27 10:59:07;;;;;;;5.32;4.18;;;9.50;94.20;;;;;;4955108;28;20239;-92
2023/12/27 11:01:34;;;;;;;8.40;3.67;;;9.60;90.30;;;;;;4962336;29;20051;-91
2023/12/27 11:04:07;;;;;;;9.32;3.10;;;9.50;86.90;;;;;;4966516;28;20028;-93
2023/12/27 11:06:38;;;;;;;7.15;3.05;;;9.50;87.80;;;;;;4949235;29;20514;-92
2023/12/27 11:09:07;;;;;;;5.82;3.38;;;9.40;87.40;;;;;;4950915;29;20024;-92
2023/12/27 11:11:37;;;;;;;5.82;3.00;;;9.30;88.10;;;;;;4966235;28;20027;-90
2023/12/27 11:14:05;;;;;;;4.53;3.65;;;9.20;88.50;;;;;;4943938;28;20027;-93
2023/12/27 11:16:34;;;;;;;;;;;9.30;87.90;;;;;;4949613;29;20131;-91
2023/12/27 11:19:03;;;;;;;5.38;3.25;;;9.20;87.80;;;;;;4957055;29;19910;-92
2023/12/27 11:21:29;;;;;;;6.72;3.58;;;9.10;86.80;;;;;;4945288;28;20074;-92
2023/12/27 11:23:55;;;;;;;5.57;2.92;;;9.30;87.60;;;;;;4953059;28;20111;-93
2023/12/27 11:26:21;;;;;;;6.65;2.78;;;9.40;87.30;;;;;;4949355;29;20020;-91
2023/12/27 11:28:47;;;;;;;5.30;3.47;;;9.60;86.20;;;;;;4950155;29;20055;-91
2023/12/27 11:31:13;;;;;;;8.30;3.50;;;9.50;86.20;;;;;;4942156;29;20027;-94
2023/12/27 11:33:42;;;;;;;4.90;4.35;;;9.60;86.30;;;;;;4967740;28;20272;-93
2023/12/27 11:36:08;;;;;;;9.27;3.95;;;9.50;85.90;;;;;;4959801;28;20059;-91
2023/12/27 11:38:36;;;;;;;6.13;4.28;;;9.60;86.50;;;;;;4949065;28;20031;-91
2023/12/27 11:41:02;;;;;;;6.72;5.13;;;9.40;85.40;;;;;;4958333;29;20027;-91
2023/12/27 11:43:56;;;;;;;6.10;3.00;;;9.60;85.80;;;;;;4958460;28;20051;-93
2023/12/27 11:46:30;;;;;;;6.93;4.15;;;9.60;86.00;;;;;;4947895;29;20301;-91
2023/12/27 11:48:58;;;;;;;5.15;2.33;;;9.70;82.70;;;;;;4949348;28;20052;-93
2023/12/27 11:51:34;;;;;;;6.65;2.88;;;9.70;83.60;;;;;;4957572;29;20028;-91
2023/12/27 11:54:02;;;;;;;7.07;3.45;;;9.80;82.80;;;;;;4980255;28;20081;-92
2023/12/27 11:56:32;;;;;;;8.70;4.07;;;10.00;81.80;;;;;;4964749;28;20023;-89
2023/12/27 11:59:02;;;;;;;5.43;2.72;;;9.90;83.20;;;;;;4947068;29;20028;-91
2023/12/27 12:01:29;;;;;;;6.28;2.53;;;10.10;80.10;;;;;;4962329;28;20030;-93
2023/12/27 12:04:15;;;;;;;4.25;3.08;;;10.10;80.00;;;;;;4962170;28;20486;-92
2023/12/27 12:06:53;;;;;;;7.20;3.10;;;10.10;79.60;;;;;;4961282;29;20038;-93
2023/12/27 12:09:25;;;;;;;5.43;2.28;;;10.30;79.50;;;;;;4957262;29;20027;-93
2023/12/27 12:11:50;;;;;;;5.95;2.67;;;10.20;78.30;;;;;;4965218;28;20087;-91
2023/12/27 12:14:16;;;;;;;8.52;3.63;;;10.20;77.40;;;;;;4955230;29;20458;-92
2023/12/27 12:16:42;;;;;;;6.15;3.13;;;10.30;77.60;;;;;;4949049;29;20032;-92
2023/12/27 12:19:12;;;;;;;5.32;2.78;;;10.30;79.10;;;;;;4962293;29;20742;-92
2023/12/27 12:21:40;;;;;;;5.18;3.22;;;10.50;79.70;;;;;;4964872;28;20028;-93
2023/12/27 12:24:06;;;;;;;;;;;10.40;78.30;;;;;;4970137;29;20027;-92
2023/12/27 12:26:32;;;;;;;5.95;4.35;;;10.40;78.40;;;;;;4950646;29;19931;-91
2023/12/27 12:28:59;;;;;;;5.30;2.53;;;10.50;75.90;;;;;;4947998;29;20499;-93
2023/12/27 12:31:27;;;;;;;6.53;2.80;;;10.70;75.80;;;;;;4962741;28;20078;-93
2023/12/27 12:33:53;;;;;;;8.57;3.65;;;10.50;76.00;;;;;;4955111;29;20039;-91
2023/12/27 12:36:19;;;;;;;4.35;2.78;;;10.60;76.20;;;;;;4965697;28;20027;-92
2023/12/27 12:38:45;;;;;;;6.80;4.03;;;10.60;76.30;;;;;;4958297;28;20035;-93
2023/12/27 12:41:11;;;;;;;8.70;3.30;;;10.80;76.80;;;;;;4964830;29;20106;-92
2023/12/27 12:43:38;;;;;;;6.47;3.38;;;10.60;76.50;;;;;;4963625;29;20051;-92
2023/12/27 12:46:04;;;;;;;5.38;3.05;;;10.60;76.80;;;;;;4978407;28;20035;-92
2023/12/27 12:48:30;;;;;;;5.28;2.92;;;10.70;76.30;;;;;;4944342;29;20123;-92
2023/12/27 12:51:28;;;;;;;5.55;3.38;;;10.70;76.70;;;;;;4952339;29;20032;-92